sensor_id;sensor_type;location;lat;lon;timestamp;P1;durP1;ratioP1;P2;durP2;ratioP2
9449;SDS011;4763;48.370;10.874;2022-10-16T00:01:04;4.30;;;2.17;;
9449;SDS011;4763;48.370;10.874;2022-10-16T00:03:32;4.23;;;2.60;;
9449;SDS011;4763;48.370;10.874;2022-10-16T00:06:00;3.57;;;2.40;;
9449;SDS011;4763;48.370;10.874;2022-10-16T00:08:28;4.90;;;2.40;;
9449;SDS011;4763;48.370;10.874;2022-10-16T00:10:58;3.27;;;2.03;;
9449;SDS011;4763;48.370;10.874;2022-10-16T00:13:25;3.33;;;2.23;;
9449;SDS011;4763;48.370;10.874;2022-10-16T00:15:54;3.20;;;2.10;;
9449;SDS011;4763;48.370;10.874;2022-10-16T00:18:21;3.27;;;1.83;;
9449;SDS011;4763;48.370;10.874;2022-10-16T00:20:48;2.37;;;2.17;;
9449;SDS011;4763;48.370;10.874;2022-10-16T00:23:16;2.87;;;1.87;;
9449;SDS011;4763;48.370;10.874;2022-10-16T00:25:43;4.40;;;2.00;;
9449;SDS011;4763;48.370;10.874;2022-10-16T00:28:10;4.13;;;1.80;;
9449;SDS011;4763;48.370;10.874;2022-10-16T00:30:37;3.67;;;2.43;;
9449;SDS011;4763;48.370;10.874;2022-10-16T00:33:04;3.30;;;2.47;;
9449;SDS011;4763;48.370;10.874;2022-10-16T00:35:31;4.63;;;2.47;;
9449;SDS011;4763;48.370;10.874;2022-10-16T00:37:58;2.07;;;1.77;;
9449;SDS011;4763;48.370;10.874;2022-10-16T00:40:26;8.57;;;2.00;;
9449;SDS011;4763;48.370;10.874;2022-10-16T00:42:53;3.40;;;2.33;;
9449;SDS011;4763;48.370;10.874;2022-10-16T00:45:20;3.70;;;1.97;;
9449;SDS011;4763;48.370;10.874;2022-10-16T00:47:47;2.63;;;1.87;;
9449;SDS011;4763;48.370;10.874;2022-10-16T00:50:18;3.67;;;1.97;;
9449;SDS011;4763;48.370;10.874;2022-10-16T00:52:50;3.23;;;2.00;;
9449;SDS011;4763;48.370;10.874;2022-10-16T00:55:18;2.33;;;1.93;;
9449;SDS011;4763;48.370;10.874;2022-10-16T00:57:46;2.77;;;2.10;;
9449;SDS011;4763;48.370;10.874;2022-10-16T01:00:16;2.67;;;1.90;;
9449;SDS011;4763;48.370;10.874;2022-10-16T01:02:44;3.73;;;2.13;;
9449;SDS011;4763;48.370;10.874;2022-10-16T01:05:17;1.90;;;1.70;;
9449;SDS011;4763;48.370;10.874;2022-10-16T01:07:45;2.73;;;1.73;;
9449;SDS011;4763;48.370;10.874;2022-10-16T01:10:21;4.97;;;2.00;;
9449;SDS011;4763;48.370;10.874;2022-10-16T01:12:57;2.17;;;1.90;;
9449;SDS011;4763;48.370;10.874;2022-10-16T01:15:29;3.90;;;1.80;;
9449;SDS011;4763;48.370;10.874;2022-10-16T01:18:00;2.27;;;1.83;;
9449;SDS011;4763;48.370;10.874;2022-10-16T01:20:33;3.13;;;1.60;;
9449;SDS011;4763;48.370;10.874;2022-10-16T01:23:06;2.47;;;1.90;;
9449;SDS011;4763;48.370;10.874;2022-10-16T01:25:51;3.13;;;1.60;;
9449;SDS011;4763;48.370;10.874;2022-10-16T01:28:32;2.03;;;1.60;;
9449;SDS011;4763;48.370;10.874;2022-10-16T01:31:04;2.00;;;1.77;;
9449;SDS011;4763;48.370;10.874;2022-10-16T01:33:33;2.63;;;1.90;;
9449;SDS011;4763;48.370;10.874;2022-10-16T01:36:06;2.57;;;1.90;;
9449;SDS011;4763;48.370;10.874;2022-10-16T01:38:36;2.33;;;1.70;;
9449;SDS011;4763;48.370;10.874;2022-10-16T01:41:06;2.63;;;1.63;;
9449;SDS011;4763;48.370;10.874;2022-10-16T01:43:39;1.90;;;1.70;;
9449;SDS011;4763;48.370;10.874;2022-10-16T01:46:09;2.57;;;1.90;;
9449;SDS011;4763;48.370;10.874;2022-10-16T01:48:39;3.80;;;1.60;;
9449;SDS011;4763;48.370;10.874;2022-10-16T01:51:07;4.17;;;1.70;;
9449;SDS011;4763;48.370;10.874;2022-10-16T01:53:37;2.07;;;1.53;;
9449;SDS011;4763;48.370;10.874;2022-10-16T01:56:07;2.10;;;1.60;;
9449;SDS011;4763;48.370;10.874;2022-10-16T01:58:36;3.97;;;1.83;;
9449;SDS011;4763;48.370;10.874;2022-10-16T02:01:07;4.07;;;1.57;;
9449;SDS011;4763;48.370;10.874;2022-10-16T02:03:37;1.40;;;1.30;;
9449;SDS011;4763;48.370;10.874;2022-10-16T02:06:06;2.20;;;1.60;;
9449;SDS011;4763;48.370;10.874;2022-10-16T02:08:33;2.53;;;1.87;;
9449;SDS011;4763;48.370;10.874;2022-10-16T02:11:01;2.33;;;1.40;;
9449;SDS011;4763;48.370;10.874;2022-10-16T02:13:29;2.97;;;1.43;;
9449;SDS011;4763;48.370;10.874;2022-10-16T02:16:00;2.00;;;1.63;;
9449;SDS011;4763;48.370;10.874;2022-10-16T02:18:27;8.33;;;1.47;;
9449;SDS011;4763;48.370;10.874;2022-10-16T02:20:57;1.50;;;1.30;;
9449;SDS011;4763;48.370;10.874;2022-10-16T02:23:29;2.67;;;1.70;;
9449;SDS011;4763;48.370;10.874;2022-10-16T02:26:04;2.30;;;1.47;;
9449;SDS011;4763;48.370;10.874;2022-10-16T02:28:36;2.33;;;1.30;;
9449;SDS011;4763;48.370;10.874;2022-10-16T02:31:08;3.73;;;1.37;;
9449;SDS011;4763;48.370;10.874;2022-10-16T02:33:37;1.77;;;1.00;;
9449;SDS011;4763;48.370;10.874;2022-10-16T02:36:06;2.80;;;1.57;;
9449;SDS011;4763;48.370;10.874;2022-10-16T02:38:34;2.70;;;1.53;;
9449;SDS011;4763;48.370;10.874;2022-10-16T02:41:01;4.20;;;1.50;;
9449;SDS011;4763;48.370;10.874;2022-10-16T02:43:30;5.33;;;1.70;;
9449;SDS011;4763;48.370;10.874;2022-10-16T02:45:58;3.50;;;1.57;;
9449;SDS011;4763;48.370;10.874;2022-10-16T02:48:26;1.33;;;1.20;;
9449;SDS011;4763;48.370;10.874;2022-10-16T02:50:53;3.30;;;1.50;;
9449;SDS011;4763;48.370;10.874;2022-10-16T02:53:20;2.47;;;2.13;;
9449;SDS011;4763;48.370;10.874;2022-10-16T02:55:47;3.50;;;1.40;;
9449;SDS011;4763;48.370;10.874;2022-10-16T02:58:13;2.20;;;1.43;;
9449;SDS011;4763;48.370;10.874;2022-10-16T03:00:40;2.23;;;1.20;;
9449;SDS011;4763;48.370;10.874;2022-10-16T03:03:07;2.00;;;1.57;;
9449;SDS011;4763;48.370;10.874;2022-10-16T03:05:35;1.90;;;1.50;;
9449;SDS011;4763;48.370;10.874;2022-10-16T03:08:02;2.10;;;1.70;;
9449;SDS011;4763;48.370;10.874;2022-10-16T03:10:29;1.20;;;1.10;;
9449;SDS011;4763;48.370;10.874;2022-10-16T03:12:56;2.57;;;1.40;;
9449;SDS011;4763;48.370;10.874;2022-10-16T03:15:23;3.83;;;1.67;;
9449;SDS011;4763;48.370;10.874;2022-10-16T03:17:50;3.67;;;1.70;;
9449;SDS011;4763;48.370;10.874;2022-10-16T03:20:17;1.47;;;1.23;;
9449;SDS011;4763;48.370;10.874;2022-10-16T03:22:45;4.33;;;1.53;;
9449;SDS011;4763;48.370;10.874;2022-10-16T03:25:12;2.47;;;1.53;;
9449;SDS011;4763;48.370;10.874;2022-10-16T03:27:39;4.60;;;1.43;;
9449;SDS011;4763;48.370;10.874;2022-10-16T03:30:06;3.77;;;1.60;;
9449;SDS011;4763;48.370;10.874;2022-10-16T03:32:34;1.60;;;1.40;;
9449;SDS011;4763;48.370;10.874;2022-10-16T03:35:01;2.57;;;1.77;;
9449;SDS011;4763;48.370;10.874;2022-10-16T03:37:28;1.70;;;1.33;;
9449;SDS011;4763;48.370;10.874;2022-10-16T03:39:56;2.27;;;1.63;;
9449;SDS011;4763;48.370;10.874;2022-10-16T03:42:23;1.43;;;1.20;;
9449;SDS011;4763;48.370;10.874;2022-10-16T03:44:50;2.30;;;1.37;;
9449;SDS011;4763;48.370;10.874;2022-10-16T03:47:17;2.60;;;1.40;;
9449;SDS011;4763;48.370;10.874;2022-10-16T03:49:46;1.33;;;1.23;;
9449;SDS011;4763;48.370;10.874;2022-10-16T03:52:13;1.90;;;1.50;;
9449;SDS011;4763;48.370;10.874;2022-10-16T03:54:40;4.87;;;1.70;;
9449;SDS011;4763;48.370;10.874;2022-10-16T03:57:08;2.00;;;1.10;;
9449;SDS011;4763;48.370;10.874;2022-10-16T03:59:35;1.70;;;1.40;;
9449;SDS011;4763;48.370;10.874;2022-10-16T04:02:01;2.87;;;1.70;;
9449;SDS011;4763;48.370;10.874;2022-10-16T04:04:28;1.43;;;1.23;;
9449;SDS011;4763;48.370;10.874;2022-10-16T04:06:55;2.00;;;1.20;;
9449;SDS011;4763;48.370;10.874;2022-10-16T04:09:22;2.53;;;1.73;;
9449;SDS011;4763;48.370;10.874;2022-10-16T04:11:48;1.63;;;1.10;;
9449;SDS011;4763;48.370;10.874;2022-10-16T04:14:17;1.90;;;1.70;;
9449;SDS011;4763;48.370;10.874;2022-10-16T04:16:43;1.83;;;1.40;;
9449;SDS011;4763;48.370;10.874;2022-10-16T04:19:10;1.93;;;1.37;;
9449;SDS011;4763;48.370;10.874;2022-10-16T04:21:38;4.07;;;1.50;;
9449;SDS011;4763;48.370;10.874;2022-10-16T04:24:05;1.37;;;1.27;;
9449;SDS011;4763;48.370;10.874;2022-10-16T04:26:32;2.20;;;1.30;;
9449;SDS011;4763;48.370;10.874;2022-10-16T04:28:59;2.47;;;1.43;;
9449;SDS011;4763;48.370;10.874;2022-10-16T04:31:27;1.50;;;1.20;;
9449;SDS011;4763;48.370;10.874;2022-10-16T04:33:54;1.60;;;1.37;;
9449;SDS011;4763;48.370;10.874;2022-10-16T04:36:20;1.63;;;1.23;;
9449;SDS011;4763;48.370;10.874;2022-10-16T04:38:47;2.93;;;1.37;;
9449;SDS011;4763;48.370;10.874;2022-10-16T04:41:14;1.87;;;1.40;;
9449;SDS011;4763;48.370;10.874;2022-10-16T04:43:41;3.63;;;1.57;;
9449;SDS011;4763;48.370;10.874;2022-10-16T04:46:07;1.80;;;1.10;;
9449;SDS011;4763;48.370;10.874;2022-10-16T04:48:36;2.30;;;1.37;;
9449;SDS011;4763;48.370;10.874;2022-10-16T04:51:03;1.77;;;1.53;;
9449;SDS011;4763;48.370;10.874;2022-10-16T04:53:30;2.60;;;1.30;;
9449;SDS011;4763;48.370;10.874;2022-10-16T04:55:57;1.90;;;1.37;;
9449;SDS011;4763;48.370;10.874;2022-10-16T04:58:26;1.50;;;1.30;;
9449;SDS011;4763;48.370;10.874;2022-10-16T05:00:53;1.57;;;1.17;;
9449;SDS011;4763;48.370;10.874;2022-10-16T05:03:20;1.60;;;1.30;;
9449;SDS011;4763;48.370;10.874;2022-10-16T05:12:58;2.20;;;1.20;;
9449;SDS011;4763;48.370;10.874;2022-10-16T05:20:25;6.20;;;1.67;;
9449;SDS011;4763;48.370;10.874;2022-10-16T05:23:43;1.37;;;1.00;;
9449;SDS011;4763;48.370;10.874;2022-10-16T05:26:41;3.83;;;1.30;;
9449;SDS011;4763;48.370;10.874;2022-10-16T05:29:14;1.60;;;1.33;;
9449;SDS011;4763;48.370;10.874;2022-10-16T05:32:35;1.50;;;1.10;;
9449;SDS011;4763;48.370;10.874;2022-10-16T05:35:40;0.90;;;0.90;;
9449;SDS011;4763;48.370;10.874;2022-10-16T05:41:50;1.77;;;1.43;;
9449;SDS011;4763;48.370;10.874;2022-10-16T05:44:52;1.40;;;1.27;;
9449;SDS011;4763;48.370;10.874;2022-10-16T05:50:08;2.00;;;1.40;;
9449;SDS011;4763;48.370;10.874;2022-10-16T05:52:52;2.97;;;1.23;;
9449;SDS011;4763;48.370;10.874;2022-10-16T05:55:34;1.83;;;1.20;;
9449;SDS011;4763;48.370;10.874;2022-10-16T05:58:10;2.43;;;1.37;;
9449;SDS011;4763;48.370;10.874;2022-10-16T06:00:42;1.40;;;1.30;;
9449;SDS011;4763;48.370;10.874;2022-10-16T06:03:15;2.50;;;1.40;;
9449;SDS011;4763;48.370;10.874;2022-10-16T06:05:42;3.40;;;1.50;;
9449;SDS011;4763;48.370;10.874;2022-10-16T06:08:17;2.83;;;1.40;;
9449;SDS011;4763;48.370;10.874;2022-10-16T06:11:07;6.13;;;1.80;;
9449;SDS011;4763;48.370;10.874;2022-10-16T06:13:41;4.73;;;1.43;;
9449;SDS011;4763;48.370;10.874;2022-10-16T06:16:13;1.97;;;1.57;;
9449;SDS011;4763;48.370;10.874;2022-10-16T06:18:55;4.23;;;1.43;;
9449;SDS011;4763;48.370;10.874;2022-10-16T06:21:28;1.93;;;1.40;;
9449;SDS011;4763;48.370;10.874;2022-10-16T06:24:00;1.70;;;1.57;;
9449;SDS011;4763;48.370;10.874;2022-10-16T06:26:37;3.33;;;1.30;;
9449;SDS011;4763;48.370;10.874;2022-10-16T06:29:19;2.73;;;1.30;;
9449;SDS011;4763;48.370;10.874;2022-10-16T06:32:15;1.80;;;1.40;;
9449;SDS011;4763;48.370;10.874;2022-10-16T06:34:44;1.70;;;1.40;;
9449;SDS011;4763;48.370;10.874;2022-10-16T06:37:13;10.30;;;1.60;;
9449;SDS011;4763;48.370;10.874;2022-10-16T06:39:51;2.20;;;1.50;;
9449;SDS011;4763;48.370;10.874;2022-10-16T06:42:21;2.03;;;1.60;;
9449;SDS011;4763;48.370;10.874;2022-10-16T06:44:48;1.60;;;1.20;;
9449;SDS011;4763;48.370;10.874;2022-10-16T06:47:16;2.43;;;1.57;;
9449;SDS011;4763;48.370;10.874;2022-10-16T06:49:43;2.20;;;1.37;;
9449;SDS011;4763;48.370;10.874;2022-10-16T06:52:09;2.23;;;1.43;;
9449;SDS011;4763;48.370;10.874;2022-10-16T06:54:36;1.50;;;1.40;;
9449;SDS011;4763;48.370;10.874;2022-10-16T06:57:03;3.20;;;1.57;;
9449;SDS011;4763;48.370;10.874;2022-10-16T06:59:30;1.50;;;1.30;;
9449;SDS011;4763;48.370;10.874;2022-10-16T07:01:57;1.70;;;1.50;;
9449;SDS011;4763;48.370;10.874;2022-10-16T07:04:26;3.97;;;1.50;;
9449;SDS011;4763;48.370;10.874;2022-10-16T07:06:52;3.10;;;2.03;;
9449;SDS011;4763;48.370;10.874;2022-10-16T07:09:19;1.13;;;1.03;;
9449;SDS011;4763;48.370;10.874;2022-10-16T07:11:46;1.40;;;1.20;;
9449;SDS011;4763;48.370;10.874;2022-10-16T07:14:14;2.43;;;1.57;;
9449;SDS011;4763;48.370;10.874;2022-10-16T07:16:42;2.73;;;1.40;;
9449;SDS011;4763;48.370;10.874;2022-10-16T07:19:09;3.53;;;1.37;;
9449;SDS011;4763;48.370;10.874;2022-10-16T07:21:40;1.57;;;1.37;;
9449;SDS011;4763;48.370;10.874;2022-10-16T07:24:11;1.43;;;1.33;;
9449;SDS011;4763;48.370;10.874;2022-10-16T07:26:39;2.40;;;1.60;;
9449;SDS011;4763;48.370;10.874;2022-10-16T07:29:06;1.90;;;1.23;;
9449;SDS011;4763;48.370;10.874;2022-10-16T07:31:37;3.83;;;1.60;;
9449;SDS011;4763;48.370;10.874;2022-10-16T07:34:05;2.00;;;1.50;;
9449;SDS011;4763;48.370;10.874;2022-10-16T07:36:31;2.53;;;1.10;;
9449;SDS011;4763;48.370;10.874;2022-10-16T07:38:59;2.87;;;1.23;;
9449;SDS011;4763;48.370;10.874;2022-10-16T07:41:27;1.93;;;1.60;;
9449;SDS011;4763;48.370;10.874;2022-10-16T07:43:54;4.07;;;1.40;;
9449;SDS011;4763;48.370;10.874;2022-10-16T07:46:24;4.37;;;1.90;;
9449;SDS011;4763;48.370;10.874;2022-10-16T07:48:52;3.03;;;1.60;;
9449;SDS011;4763;48.370;10.874;2022-10-16T07:51:20;2.57;;;1.57;;
9449;SDS011;4763;48.370;10.874;2022-10-16T07:53:47;3.13;;;1.83;;
9449;SDS011;4763;48.370;10.874;2022-10-16T07:56:16;2.53;;;1.60;;
9449;SDS011;4763;48.370;10.874;2022-10-16T07:58:45;5.17;;;2.27;;
9449;SDS011;4763;48.370;10.874;2022-10-16T08:01:15;2.80;;;1.60;;
9449;SDS011;4763;48.370;10.874;2022-10-16T08:03:43;2.53;;;2.27;;
9449;SDS011;4763;48.370;10.874;2022-10-16T08:06:10;2.43;;;1.90;;
9449;SDS011;4763;48.370;10.874;2022-10-16T08:08:37;9.57;;;1.70;;
9449;SDS011;4763;48.370;10.874;2022-10-16T08:11:04;1.50;;;1.20;;
9449;SDS011;4763;48.370;10.874;2022-10-16T08:13:32;3.30;;;1.17;;
9449;SDS011;4763;48.370;10.874;2022-10-16T08:15:59;1.83;;;1.30;;
9449;SDS011;4763;48.370;10.874;2022-10-16T08:18:26;1.50;;;1.37;;
9449;SDS011;4763;48.370;10.874;2022-10-16T08:20:56;5.07;;;2.73;;
9449;SDS011;4763;48.370;10.874;2022-10-16T08:23:24;3.37;;;2.63;;
9449;SDS011;4763;48.370;10.874;2022-10-16T08:25:51;2.00;;;1.53;;
9449;SDS011;4763;48.370;10.874;2022-10-16T08:28:19;2.60;;;1.63;;
9449;SDS011;4763;48.370;10.874;2022-10-16T08:30:47;1.80;;;1.60;;
9449;SDS011;4763;48.370;10.874;2022-10-16T08:33:14;2.17;;;1.40;;
9449;SDS011;4763;48.370;10.874;2022-10-16T08:35:41;3.10;;;1.30;;
9449;SDS011;4763;48.370;10.874;2022-10-16T08:38:08;1.37;;;1.27;;
9449;SDS011;4763;48.370;10.874;2022-10-16T08:40:36;6.57;;;1.73;;
9449;SDS011;4763;48.370;10.874;2022-10-16T08:43:07;3.13;;;1.47;;
9449;SDS011;4763;48.370;10.874;2022-10-16T08:46:03;1.30;;;1.20;;
9449;SDS011;4763;48.370;10.874;2022-10-16T08:48:41;1.23;;;0.97;;
9449;SDS011;4763;48.370;10.874;2022-10-16T08:51:14;1.90;;;1.07;;
9449;SDS011;4763;48.370;10.874;2022-10-16T08:53:46;2.17;;;1.07;;
9449;SDS011;4763;48.370;10.874;2022-10-16T08:56:17;4.27;;;1.40;;
9449;SDS011;4763;48.370;10.874;2022-10-16T08:58:45;1.17;;;0.98;;
9449;SDS011;4763;48.370;10.874;2022-10-16T09:01:15;2.67;;;1.20;;
9449;SDS011;4763;48.370;10.874;2022-10-16T09:03:51;1.05;;;0.85;;
9449;SDS011;4763;48.370;10.874;2022-10-16T09:09:25;4.88;;;1.40;;
9449;SDS011;4763;48.370;10.874;2022-10-16T09:12:15;2.42;;;1.00;;
9449;SDS011;4763;48.370;10.874;2022-10-16T09:14:52;1.10;;;0.90;;
9449;SDS011;4763;48.370;10.874;2022-10-16T09:17:37;1.02;;;0.88;;
9449;SDS011;4763;48.370;10.874;2022-10-16T09:23:16;2.83;;;0.80;;
9449;SDS011;4763;48.370;10.874;2022-10-16T09:25:46;0.90;;;0.80;;
9449;SDS011;4763;48.370;10.874;2022-10-16T09:28:15;1.38;;;1.20;;
9449;SDS011;4763;48.370;10.874;2022-10-16T09:30:42;1.23;;;0.98;;
9449;SDS011;4763;48.370;10.874;2022-10-16T09:33:11;0.82;;;0.80;;
9449;SDS011;4763;48.370;10.874;2022-10-16T09:35:40;1.10;;;0.98;;
9449;SDS011;4763;48.370;10.874;2022-10-16T09:38:08;3.45;;;0.90;;
9449;SDS011;4763;48.370;10.874;2022-10-16T09:40:46;1.10;;;1.00;;
9449;SDS011;4763;48.370;10.874;2022-10-16T09:43:17;4.22;;;0.77;;
9449;SDS011;4763;48.370;10.874;2022-10-16T09:45:54;2.40;;;0.90;;
9449;SDS011;4763;48.370;10.874;2022-10-16T09:48:24;1.40;;;0.75;;
9449;SDS011;4763;48.370;10.874;2022-10-16T09:50:58;0.77;;;0.70;;
9449;SDS011;4763;48.370;10.874;2022-10-16T09:53:26;1.17;;;0.90;;
9449;SDS011;4763;48.370;10.874;2022-10-16T09:56:05;1.48;;;0.75;;
9449;SDS011;4763;48.370;10.874;2022-10-16T09:58:32;1.00;;;0.80;;
9449;SDS011;4763;48.370;10.874;2022-10-16T10:00:59;1.48;;;0.93;;
9449;SDS011;4763;48.370;10.874;2022-10-16T10:06:16;2.55;;;1.40;;
9449;SDS011;4763;48.370;10.874;2022-10-16T10:08:55;0.75;;;0.60;;
9449;SDS011;4763;48.370;10.874;2022-10-16T10:11:39;0.90;;;0.55;;
9449;SDS011;4763;48.370;10.874;2022-10-16T10:14:12;1.13;;;0.70;;
9449;SDS011;4763;48.370;10.874;2022-10-16T10:16:44;3.40;;;1.00;;
9449;SDS011;4763;48.370;10.874;2022-10-16T10:19:14;1.08;;;0.90;;
9449;SDS011;4763;48.370;10.874;2022-10-16T10:21:42;1.30;;;1.20;;
9449;SDS011;4763;48.370;10.874;2022-10-16T10:24:10;1.92;;;1.20;;
9449;SDS011;4763;48.370;10.874;2022-10-16T10:26:38;1.58;;;0.80;;
9449;SDS011;4763;48.370;10.874;2022-10-16T10:29:09;2.63;;;1.20;;
9449;SDS011;4763;48.370;10.874;2022-10-16T10:31:51;1.25;;;0.63;;
9449;SDS011;4763;48.370;10.874;2022-10-16T10:34:34;1.67;;;1.13;;
9449;SDS011;4763;48.370;10.874;2022-10-16T10:37:20;5.07;;;0.90;;
9449;SDS011;4763;48.370;10.874;2022-10-16T10:39:57;1.20;;;1.05;;
9449;SDS011;4763;48.370;10.874;2022-10-16T10:42:34;1.38;;;0.90;;
9449;SDS011;4763;48.370;10.874;2022-10-16T10:45:12;0.80;;;0.80;;
9449;SDS011;4763;48.370;10.874;2022-10-16T10:47:47;2.47;;;1.20;;
9449;SDS011;4763;48.370;10.874;2022-10-16T10:50:24;1.45;;;1.05;;
9449;SDS011;4763;48.370;10.874;2022-10-16T10:52:58;1.27;;;1.17;;
9449;SDS011;4763;48.370;10.874;2022-10-16T10:55:31;1.88;;;1.38;;
9449;SDS011;4763;48.370;10.874;2022-10-16T10:58:13;2.80;;;0.77;;
9449;SDS011;4763;48.370;10.874;2022-10-16T11:00:54;1.30;;;1.00;;
9449;SDS011;4763;48.370;10.874;2022-10-16T11:03:30;1.33;;;0.93;;
9449;SDS011;4763;48.370;10.874;2022-10-16T11:06:10;0.70;;;0.70;;
9449;SDS011;4763;48.370;10.874;2022-10-16T11:08:39;1.60;;;0.98;;
9449;SDS011;4763;48.370;10.874;2022-10-16T11:11:10;1.83;;;1.00;;
9449;SDS011;4763;48.370;10.874;2022-10-16T11:13:43;1.00;;;0.90;;
9449;SDS011;4763;48.370;10.874;2022-10-16T11:16:18;1.70;;;0.90;;
9449;SDS011;4763;48.370;10.874;2022-10-16T11:18:50;1.13;;;0.98;;
9449;SDS011;4763;48.370;10.874;2022-10-16T11:21:22;8.70;;;1.40;;
9449;SDS011;4763;48.370;10.874;2022-10-16T11:23:51;0.90;;;0.80;;
9449;SDS011;4763;48.370;10.874;2022-10-16T11:26:23;1.92;;;1.45;;
9449;SDS011;4763;48.370;10.874;2022-10-16T11:28:54;1.10;;;0.93;;
9449;SDS011;4763;48.370;10.874;2022-10-16T11:31:25;2.30;;;1.08;;
9449;SDS011;4763;48.370;10.874;2022-10-16T11:33:59;3.30;;;1.42;;
9449;SDS011;4763;48.370;10.874;2022-10-16T11:36:33;1.30;;;1.20;;
9449;SDS011;4763;48.370;10.874;2022-10-16T11:39:08;4.53;;;0.90;;
9449;SDS011;4763;48.370;10.874;2022-10-16T11:41:45;3.13;;;0.80;;
9449;SDS011;4763;48.370;10.874;2022-10-16T11:44:31;1.58;;;0.80;;
9449;SDS011;4763;48.370;10.874;2022-10-16T11:47:07;0.82;;;0.70;;
9449;SDS011;4763;48.370;10.874;2022-10-16T11:49:41;0.77;;;0.73;;
9449;SDS011;4763;48.370;10.874;2022-10-16T11:52:12;1.30;;;0.80;;
9449;SDS011;4763;48.370;10.874;2022-10-16T11:54:45;1.10;;;0.68;;
9449;SDS011;4763;48.370;10.874;2022-10-16T11:57:17;0.98;;;0.70;;
9449;SDS011;4763;48.370;10.874;2022-10-16T11:59:47;3.10;;;1.25;;
9449;SDS011;4763;48.370;10.874;2022-10-16T12:02:28;1.00;;;0.90;;
9449;SDS011;4763;48.370;10.874;2022-10-16T12:05:07;1.00;;;0.90;;
9449;SDS011;4763;48.370;10.874;2022-10-16T12:07:47;2.58;;;1.10;;
9449;SDS011;4763;48.370;10.874;2022-10-16T12:10:19;0.60;;;0.60;;
9449;SDS011;4763;48.370;10.874;2022-10-16T12:12:48;0.88;;;0.70;;
9449;SDS011;4763;48.370;10.874;2022-10-16T12:15:18;1.00;;;0.70;;
9449;SDS011;4763;48.370;10.874;2022-10-16T12:17:48;1.80;;;0.80;;
9449;SDS011;4763;48.370;10.874;2022-10-16T12:20:19;0.70;;;0.60;;
9449;SDS011;4763;48.370;10.874;2022-10-16T12:22:53;1.65;;;1.13;;
9449;SDS011;4763;48.370;10.874;2022-10-16T12:25:22;0.93;;;0.60;;
9449;SDS011;4763;48.370;10.874;2022-10-16T12:27:57;0.98;;;0.80;;
9449;SDS011;4763;48.370;10.874;2022-10-16T12:30:26;1.48;;;0.90;;
9449;SDS011;4763;48.370;10.874;2022-10-16T12:32:55;1.42;;;0.70;;
9449;SDS011;4763;48.370;10.874;2022-10-16T12:35:25;2.83;;;1.02;;
9449;SDS011;4763;48.370;10.874;2022-10-16T12:38:03;2.22;;;1.38;;
9449;SDS011;4763;48.370;10.874;2022-10-16T12:40:32;0.93;;;0.80;;
9449;SDS011;4763;48.370;10.874;2022-10-16T12:43:11;0.60;;;0.60;;
9449;SDS011;4763;48.370;10.874;2022-10-16T12:45:58;3.20;;;1.40;;
9449;SDS011;4763;48.370;10.874;2022-10-16T12:48:26;0.93;;;0.68;;
9449;SDS011;4763;48.370;10.874;2022-10-16T12:50:53;2.03;;;0.70;;
9449;SDS011;4763;48.370;10.874;2022-10-16T12:53:22;1.05;;;0.73;;
9449;SDS011;4763;48.370;10.874;2022-10-16T12:55:53;2.35;;;0.88;;
9449;SDS011;4763;48.370;10.874;2022-10-16T12:58:33;1.35;;;0.90;;
9449;SDS011;4763;48.370;10.874;2022-10-16T13:01:11;1.08;;;0.75;;
9449;SDS011;4763;48.370;10.874;2022-10-16T13:03:59;3.95;;;0.95;;
9449;SDS011;4763;48.370;10.874;2022-10-16T13:07:00;1.80;;;0.50;;
9449;SDS011;4763;48.370;10.874;2022-10-16T13:09:43;0.65;;;0.65;;
9449;SDS011;4763;48.370;10.874;2022-10-16T13:12:28;1.10;;;0.88;;
9449;SDS011;4763;48.370;10.874;2022-10-16T13:15:19;2.22;;;0.60;;
9449;SDS011;4763;48.370;10.874;2022-10-16T13:17:55;0.88;;;0.70;;
9449;SDS011;4763;48.370;10.874;2022-10-16T13:20:27;1.25;;;0.80;;
9449;SDS011;4763;48.370;10.874;2022-10-16T13:22:59;0.70;;;0.70;;
9449;SDS011;4763;48.370;10.874;2022-10-16T13:25:38;2.70;;;0.88;;
9449;SDS011;4763;48.370;10.874;2022-10-16T13:28:16;4.00;;;1.02;;
9449;SDS011;4763;48.370;10.874;2022-10-16T13:30:50;1.17;;;1.05;;
9449;SDS011;4763;48.370;10.874;2022-10-16T13:33:19;0.80;;;0.80;;
9449;SDS011;4763;48.370;10.874;2022-10-16T13:35:52;0.57;;;0.57;;
9449;SDS011;4763;48.370;10.874;2022-10-16T13:38:21;2.63;;;1.20;;
9449;SDS011;4763;48.370;10.874;2022-10-16T13:40:53;1.17;;;0.68;;
9449;SDS011;4763;48.370;10.874;2022-10-16T13:43:22;1.10;;;0.70;;
9449;SDS011;4763;48.370;10.874;2022-10-16T13:45:52;0.68;;;0.60;;
9449;SDS011;4763;48.370;10.874;2022-10-16T13:48:21;1.85;;;1.65;;
9449;SDS011;4763;48.370;10.874;2022-10-16T13:50:57;1.95;;;1.30;;
9449;SDS011;4763;48.370;10.874;2022-10-16T13:53:29;0.82;;;0.73;;
9449;SDS011;4763;48.370;10.874;2022-10-16T13:55:59;0.75;;;0.70;;
9449;SDS011;4763;48.370;10.874;2022-10-16T13:58:27;1.38;;;0.75;;
9449;SDS011;4763;48.370;10.874;2022-10-16T14:00:55;2.90;;;0.57;;
9449;SDS011;4763;48.370;10.874;2022-10-16T14:03:23;0.65;;;0.60;;
9449;SDS011;4763;48.370;10.874;2022-10-16T14:05:51;3.95;;;0.90;;
9449;SDS011;4763;48.370;10.874;2022-10-16T14:08:19;0.65;;;0.63;;
9449;SDS011;4763;48.370;10.874;2022-10-16T14:10:47;1.25;;;0.70;;
9449;SDS011;4763;48.370;10.874;2022-10-16T14:13:18;1.10;;;0.90;;
9449;SDS011;4763;48.370;10.874;2022-10-16T14:15:46;0.40;;;0.40;;
9449;SDS011;4763;48.370;10.874;2022-10-16T14:18:16;1.30;;;0.75;;
9449;SDS011;4763;48.370;10.874;2022-10-16T14:20:46;1.80;;;1.33;;
9449;SDS011;4763;48.370;10.874;2022-10-16T14:23:21;0.73;;;0.68;;
9449;SDS011;4763;48.370;10.874;2022-10-16T14:25:51;1.92;;;1.05;;
9449;SDS011;4763;48.370;10.874;2022-10-16T14:28:20;1.20;;;1.02;;
9449;SDS011;4763;48.370;10.874;2022-10-16T14:30:50;1.33;;;1.00;;
9449;SDS011;4763;48.370;10.874;2022-10-16T14:33:19;4.07;;;2.88;;
9449;SDS011;4763;48.370;10.874;2022-10-16T14:35:57;4.32;;;1.83;;
9449;SDS011;4763;48.370;10.874;2022-10-16T14:38:27;1.48;;;1.38;;
9449;SDS011;4763;48.370;10.874;2022-10-16T14:40:54;2.03;;;1.05;;
9449;SDS011;4763;48.370;10.874;2022-10-16T14:43:28;1.95;;;0.80;;
9449;SDS011;4763;48.370;10.874;2022-10-16T14:45:58;1.40;;;1.05;;
9449;SDS011;4763;48.370;10.874;2022-10-16T14:48:25;2.65;;;1.20;;
9449;SDS011;4763;48.370;10.874;2022-10-16T14:50:53;3.70;;;1.20;;
9449;SDS011;4763;48.370;10.874;2022-10-16T14:53:20;1.83;;;1.20;;
9449;SDS011;4763;48.370;10.874;2022-10-16T14:55:46;1.95;;;1.33;;
9449;SDS011;4763;48.370;10.874;2022-10-16T14:58:14;2.65;;;1.58;;
9449;SDS011;4763;48.370;10.874;2022-10-16T15:00:43;3.20;;;1.33;;
9449;SDS011;4763;48.370;10.874;2022-10-16T15:03:10;1.92;;;1.40;;
9449;SDS011;4763;48.370;10.874;2022-10-16T15:05:37;3.03;;;1.75;;
9449;SDS011;4763;48.370;10.874;2022-10-16T15:08:04;5.55;;;1.80;;
9449;SDS011;4763;48.370;10.874;2022-10-16T15:10:31;3.53;;;1.73;;
9449;SDS011;4763;48.370;10.874;2022-10-16T15:13:03;3.72;;;2.42;;
9449;SDS011;4763;48.370;10.874;2022-10-16T15:15:32;3.60;;;2.03;;
9449;SDS011;4763;48.370;10.874;2022-10-16T15:18:02;2.20;;;1.60;;
9449;SDS011;4763;48.370;10.874;2022-10-16T15:20:30;1.92;;;1.35;;
9449;SDS011;4763;48.370;10.874;2022-10-16T15:22:59;1.92;;;1.45;;
9449;SDS011;4763;48.370;10.874;2022-10-16T15:25:31;5.20;;;2.65;;
9449;SDS011;4763;48.370;10.874;2022-10-16T15:28:00;2.88;;;2.60;;
9449;SDS011;4763;48.370;10.874;2022-10-16T15:30:28;4.30;;;2.50;;
9449;SDS011;4763;48.370;10.874;2022-10-16T15:32:55;4.18;;;2.38;;
9449;SDS011;4763;48.370;10.874;2022-10-16T15:35:23;2.83;;;1.80;;
9449;SDS011;4763;48.370;10.874;2022-10-16T15:37:50;2.47;;;1.55;;
9449;SDS011;4763;48.370;10.874;2022-10-16T15:40:18;2.47;;;2.00;;
9449;SDS011;4763;48.370;10.874;2022-10-16T15:42:46;3.33;;;1.90;;
9449;SDS011;4763;48.370;10.874;2022-10-16T15:45:13;5.45;;;2.42;;
9449;SDS011;4763;48.370;10.874;2022-10-16T15:47:40;3.15;;;2.20;;
9449;SDS011;4763;48.370;10.874;2022-10-16T15:50:09;3.47;;;2.08;;
9449;SDS011;4763;48.370;10.874;2022-10-16T15:52:39;6.00;;;2.50;;